SHT13Q EGNT-EGLL
Flight info
| Callsign | SHT13Q |
|---|---|
| Flight time | 0h 47m |
| Altitude | 25000 |
| Route | DCT NATEB P18 GASKO P16 RIBEL UP16 CROFT DCT NUGRA NUGRA2H |
| Aircraft | A320/M-SDE3FGIJ1KRWXY/SB1 |
Departure
| Time | 2026-05-07 14:53 |
|---|---|
| Airport | Newcastle International Airport (EGNT) |
Arrival
| Time | 2026-05-07 15:40 |
|---|---|
| Airport | London Heathrow Airport (EGLL) |
| Time | Latitude | Longitude | Altitude | Speed | Heading |
|---|---|---|---|---|---|
| 2026-05-07 14:25 | 55.03670 | -1.70845 | 267 ft | 0 kts | 4° |
| 2026-05-07 14:41 | 55.03667 | -1.70845 | 267 ft | 3 kts | 4° |
| 2026-05-07 14:42 | 55.03640 | -1.70847 | 267 ft | 4 kts | 358° |
| 2026-05-07 14:42 | 55.03613 | -1.70844 | 267 ft | 4 kts | 358° |
| 2026-05-07 14:42 | 55.03596 | -1.70844 | 267 ft | 0 kts | 4° |
| 2026-05-07 14:42 | 55.03600 | -1.70824 | 267 ft | 4 kts | 82° |
| 2026-05-07 14:43 | 55.03597 | -1.70780 | 267 ft | 3 kts | 95° |
| 2026-05-07 14:43 | 55.03598 | -1.70799 | 267 ft | 4 kts | 96° |
| 2026-05-07 14:43 | 55.03599 | -1.70812 | 267 ft | 0 kts | 95° |
| 2026-05-07 14:45 | 55.03598 | -1.70795 | 267 ft | 3 kts | 95° |
| 2026-05-07 14:45 | 55.03596 | -1.70739 | 267 ft | 6 kts | 95° |
| 2026-05-07 14:45 | 55.03592 | -1.70653 | 267 ft | 8 kts | 94° |
| 2026-05-07 14:46 | 55.03595 | -1.70537 | 267 ft | 11 kts | 80° |
| 2026-05-07 14:46 | 55.03647 | -1.70443 | 267 ft | 12 kts | 13° |
| 2026-05-07 14:46 | 55.03732 | -1.70430 | 267 ft | 11 kts | 4° |
| 2026-05-07 14:46 | 55.03781 | -1.70343 | 267 ft | 12 kts | 91° |
| 2026-05-07 14:47 | 55.03781 | -1.70328 | 267 ft | 0 kts | 94° |
| 2026-05-07 14:47 | 55.03780 | -1.70311 | 266 ft | 5 kts | 94° |
| 2026-05-07 14:47 | 55.03776 | -1.70214 | 264 ft | 11 kts | 94° |
| 2026-05-07 14:48 | 55.03773 | -1.70055 | 262 ft | 15 kts | 88° |
| 2026-05-07 14:48 | 55.03782 | -1.69843 | 259 ft | 19 kts | 81° |
| 2026-05-07 14:48 | 55.03818 | -1.69592 | 257 ft | 23 kts | 73° |
| 2026-05-07 14:48 | 55.03886 | -1.69314 | 254 ft | 27 kts | 65° |
| 2026-05-07 14:49 | 55.03964 | -1.69018 | 252 ft | 27 kts | 65° |
| 2026-05-07 14:49 | 55.04043 | -1.68721 | 250 ft | 25 kts | 65° |
| 2026-05-07 14:49 | 55.04120 | -1.68429 | 248 ft | 28 kts | 65° |
| 2026-05-07 14:49 | 55.04198 | -1.68136 | 247 ft | 22 kts | 65° |
| 2026-05-07 14:50 | 55.04265 | -1.67885 | 247 ft | 24 kts | 65° |
| 2026-05-07 14:50 | 55.04328 | -1.67650 | 244 ft | 16 kts | 67° |
| 2026-05-07 14:50 | 55.04328 | -1.67452 | 241 ft | 17 kts | 97° |
| 2026-05-07 14:50 | 55.04237 | -1.67367 | 241 ft | 16 kts | 195° |
| 2026-05-07 14:51 | 55.04205 | -1.67428 | 242 ft | 0 kts | 243° |
| 2026-05-07 14:52 | 55.04199 | -1.67448 | 243 ft | 10 kts | 243° |
| 2026-05-07 14:52 | 55.04071 | -1.67926 | 247 ft | 80 kts | 245° |
| 2026-05-07 14:52 | 55.03751 | -1.69126 | 254 ft | 135 kts | 245° |
| 2026-05-07 14:52 | 55.03317 | -1.70801 | 606 ft | 150 kts | 245° |
| 2026-05-07 14:53 | 55.02975 | -1.72441 | 1451 ft | 144 kts | 246° |
| 2026-05-07 14:53 | 55.02565 | -1.74129 | 1873 ft | 161 kts | 243° |
| 2026-05-07 14:53 | 55.02049 | -1.75957 | 2354 ft | 172 kts | 241° |
| 2026-05-07 14:53 | 55.01312 | -1.77564 | 3002 ft | 172 kts | 212° |
| 2026-05-07 14:54 | 55.00139 | -1.78064 | 3514 ft | 187 kts | 177° |
| 2026-05-07 14:54 | 54.98787 | -1.77511 | 3814 ft | 211 kts | 168° |
| 2026-05-07 14:54 | 54.97295 | -1.76790 | 4160 ft | 236 kts | 167° |
| 2026-05-07 14:54 | 54.95643 | -1.75981 | 4749 ft | 253 kts | 167° |
| 2026-05-07 14:55 | 54.93927 | -1.75141 | 5627 ft | 259 kts | 168° |
| 2026-05-07 14:55 | 54.92165 | -1.74725 | 6532 ft | 260 kts | 182° |
| 2026-05-07 14:55 | 54.90364 | -1.75058 | 7406 ft | 262 kts | 191° |
| 2026-05-07 14:55 | 54.88545 | -1.75562 | 7875 ft | 266 kts | 191° |
| 2026-05-07 14:56 | 54.86707 | -1.76069 | 8633 ft | 268 kts | 191° |
| 2026-05-07 14:56 | 54.84862 | -1.76574 | 9562 ft | 270 kts | 191° |
| 2026-05-07 14:56 | 54.82992 | -1.77088 | 10286 ft | 279 kts | 191° |
| 2026-05-07 14:56 | 54.80997 | -1.77640 | 10550 ft | 302 kts | 191° |
| 2026-05-07 14:57 | 54.78856 | -1.78227 | 10916 ft | 319 kts | 191° |
| 2026-05-07 14:57 | 54.76640 | -1.78830 | 11571 ft | 324 kts | 191° |
| 2026-05-07 14:57 | 54.74394 | -1.79438 | 12303 ft | 328 kts | 191° |
| 2026-05-07 14:57 | 54.72132 | -1.80051 | 13030 ft | 331 kts | 191° |
| 2026-05-07 14:58 | 54.69846 | -1.80683 | 13758 ft | 335 kts | 191° |
| 2026-05-07 14:58 | 54.67538 | -1.81382 | 14382 ft | 338 kts | 192° |
| 2026-05-07 14:58 | 54.65207 | -1.82131 | 14988 ft | 342 kts | 192° |
| 2026-05-07 14:58 | 54.62858 | -1.82899 | 15598 ft | 346 kts | 192° |
| 2026-05-07 14:59 | 54.60481 | -1.83669 | 16197 ft | 349 kts | 191° |
| 2026-05-07 14:59 | 54.58107 | -1.84431 | 16792 ft | 353 kts | 191° |
| 2026-05-07 14:59 | 54.55681 | -1.85206 | 17394 ft | 357 kts | 191° |
| 2026-05-07 14:59 | 54.53197 | -1.85997 | 18003 ft | 360 kts | 191° |
| 2026-05-07 15:00 | 54.50752 | -1.86771 | 18565 ft | 364 kts | 191° |
| 2026-05-07 15:00 | 54.48252 | -1.87556 | 19125 ft | 366 kts | 191° |
| 2026-05-07 15:00 | 54.45737 | -1.88343 | 19678 ft | 369 kts | 191° |
| 2026-05-07 15:00 | 54.43197 | -1.89138 | 20243 ft | 372 kts | 191° |
| 2026-05-07 15:01 | 54.40645 | -1.89936 | 20784 ft | 375 kts | 191° |
| 2026-05-07 15:01 | 54.38073 | -1.90740 | 21313 ft | 377 kts | 190° |
| 2026-05-07 15:01 | 54.35478 | -1.91553 | 21840 ft | 380 kts | 190° |
| 2026-05-07 15:01 | 54.32871 | -1.92370 | 22359 ft | 383 kts | 190° |
| 2026-05-07 15:02 | 54.30244 | -1.93189 | 22873 ft | 385 kts | 190° |
| 2026-05-07 15:02 | 54.27596 | -1.94008 | 23370 ft | 388 kts | 190° |
| 2026-05-07 15:02 | 54.24956 | -1.95025 | 23818 ft | 391 kts | 197° |
| 2026-05-07 15:02 | 54.22440 | -1.96833 | 24223 ft | 394 kts | 208° |
| 2026-05-07 15:03 | 54.20146 | -1.99431 | 24621 ft | 398 kts | 218° |
| 2026-05-07 15:03 | 54.18085 | -2.02631 | 24940 ft | 402 kts | 222° |
| 2026-05-07 15:03 | 54.16049 | -2.05900 | 25025 ft | 402 kts | 222° |
| 2026-05-07 15:03 | 54.14039 | -2.09126 | 25037 ft | 402 kts | 222° |
| 2026-05-07 15:04 | 54.12005 | -2.12391 | 25039 ft | 403 kts | 221° |
| 2026-05-07 15:04 | 54.09896 | -2.15771 | 25040 ft | 417 kts | 221° |
| 2026-05-07 15:04 | 54.07775 | -2.19157 | 25032 ft | 429 kts | 221° |
| 2026-05-07 15:04 | 54.05562 | -2.22677 | 25036 ft | 440 kts | 221° |
| 2026-05-07 15:05 | 54.03281 | -2.26238 | 25030 ft | 449 kts | 218° |
| 2026-05-07 15:05 | 54.00689 | -2.29275 | 25037 ft | 456 kts | 208° |
| 2026-05-07 15:05 | 53.97781 | -2.31471 | 25034 ft | 458 kts | 200° |
| 2026-05-07 15:05 | 53.94796 | -2.33396 | 25031 ft | 459 kts | 200° |
| 2026-05-07 15:06 | 53.91799 | -2.35314 | 25032 ft | 460 kts | 200° |
| 2026-05-07 15:06 | 53.88807 | -2.37222 | 25031 ft | 460 kts | 200° |
| 2026-05-07 15:06 | 53.85808 | -2.39132 | 25031 ft | 460 kts | 200° |
| 2026-05-07 15:06 | 53.82808 | -2.41045 | 25034 ft | 460 kts | 200° |
| 2026-05-07 15:07 | 53.79808 | -2.42962 | 25031 ft | 460 kts | 200° |
| 2026-05-07 15:07 | 53.76814 | -2.44880 | 25031 ft | 460 kts | 200° |
| 2026-05-07 15:07 | 53.73818 | -2.46803 | 25029 ft | 460 kts | 200° |
| 2026-05-07 15:07 | 53.70864 | -2.48694 | 25022 ft | 460 kts | 200° |
| 2026-05-07 15:08 | 53.67870 | -2.50605 | 25017 ft | 459 kts | 200° |
| 2026-05-07 15:08 | 53.64825 | -2.52217 | 25009 ft | 459 kts | 191° |
| 2026-05-07 15:08 | 53.61651 | -2.52774 | 25009 ft | 458 kts | 180° |
| 2026-05-07 15:08 | 53.58474 | -2.52208 | 25005 ft | 459 kts | 168° |
| 2026-05-07 15:09 | 53.55361 | -2.50979 | 25004 ft | 459 kts | 167° |
| 2026-05-07 15:09 | 53.52256 | -2.49738 | 25004 ft | 460 kts | 167° |
| 2026-05-07 15:09 | 53.49144 | -2.48496 | 25001 ft | 460 kts | 167° |
| 2026-05-07 15:09 | 53.46029 | -2.47258 | 25003 ft | 460 kts | 167° |
| 2026-05-07 15:10 | 53.42908 | -2.46021 | 25004 ft | 460 kts | 167° |
| 2026-05-07 15:10 | 53.39795 | -2.44789 | 25002 ft | 460 kts | 167° |
| 2026-05-07 15:10 | 53.36675 | -2.43554 | 25001 ft | 460 kts | 167° |
| 2026-05-07 15:10 | 53.33554 | -2.42322 | 25006 ft | 461 kts | 167° |
| 2026-05-07 15:11 | 53.30476 | -2.41111 | 24999 ft | 461 kts | 167° |
| 2026-05-07 15:11 | 53.27352 | -2.39881 | 25002 ft | 461 kts | 167° |
| 2026-05-07 15:11 | 53.24226 | -2.38660 | 25001 ft | 461 kts | 167° |
| 2026-05-07 15:11 | 53.21098 | -2.37440 | 25003 ft | 461 kts | 167° |
| 2026-05-07 15:12 | 53.17974 | -2.36223 | 25002 ft | 461 kts | 167° |
| 2026-05-07 15:12 | 53.14849 | -2.35009 | 25008 ft | 462 kts | 167° |
| 2026-05-07 15:12 | 53.11709 | -2.33788 | 25011 ft | 462 kts | 167° |
| 2026-05-07 15:12 | 53.08579 | -2.32570 | 25007 ft | 462 kts | 167° |
| 2026-05-07 15:13 | 53.05446 | -2.31344 | 25011 ft | 462 kts | 166° |
| 2026-05-07 15:13 | 53.02407 | -2.29562 | 25007 ft | 463 kts | 155° |
| 2026-05-07 15:13 | 52.99606 | -2.26895 | 25011 ft | 465 kts | 148° |
| 2026-05-07 15:13 | 52.96872 | -2.24020 | 25010 ft | 465 kts | 148° |
| 2026-05-07 15:14 | 52.94144 | -2.21148 | 25011 ft | 465 kts | 148° |
| 2026-05-07 15:14 | 52.91408 | -2.18269 | 25005 ft | 465 kts | 148° |
| 2026-05-07 15:14 | 52.88674 | -2.15396 | 25010 ft | 466 kts | 148° |
| 2026-05-07 15:14 | 52.85968 | -2.12565 | 25013 ft | 466 kts | 149° |
| 2026-05-07 15:15 | 52.83222 | -2.09703 | 25013 ft | 467 kts | 149° |
| 2026-05-07 15:15 | 52.80469 | -2.06845 | 25007 ft | 468 kts | 149° |
| 2026-05-07 15:15 | 52.77702 | -2.03975 | 25007 ft | 470 kts | 149° |
| 2026-05-07 15:15 | 52.74931 | -2.01099 | 25013 ft | 471 kts | 149° |
| 2026-05-07 15:16 | 52.72160 | -1.98225 | 25016 ft | 472 kts | 149° |
| 2026-05-07 15:16 | 52.69374 | -1.95333 | 25015 ft | 472 kts | 149° |
| 2026-05-07 15:16 | 52.66592 | -1.92450 | 25013 ft | 473 kts | 149° |
| 2026-05-07 15:16 | 52.63805 | -1.89573 | 25007 ft | 473 kts | 149° |
| 2026-05-07 15:17 | 52.61003 | -1.86689 | 25005 ft | 474 kts | 149° |
| 2026-05-07 15:17 | 52.58205 | -1.83818 | 25005 ft | 474 kts | 149° |
| 2026-05-07 15:17 | 52.55405 | -1.80950 | 25002 ft | 474 kts | 149° |
| 2026-05-07 15:17 | 52.52599 | -1.78078 | 24917 ft | 476 kts | 149° |
| 2026-05-07 15:18 | 52.49811 | -1.75223 | 24572 ft | 465 kts | 149° |
| 2026-05-07 15:18 | 52.47131 | -1.72478 | 24449 ft | 444 kts | 149° |
| 2026-05-07 15:18 | 52.44593 | -1.69880 | 24313 ft | 427 kts | 149° |
| 2026-05-07 15:18 | 52.42082 | -1.67311 | 24056 ft | 414 kts | 149° |
| 2026-05-07 15:19 | 52.39699 | -1.64883 | 23722 ft | 405 kts | 150° |
| 2026-05-07 15:19 | 52.37318 | -1.62465 | 23213 ft | 400 kts | 150° |
| 2026-05-07 15:19 | 52.34968 | -1.60086 | 22756 ft | 394 kts | 150° |
| 2026-05-07 15:19 | 52.32653 | -1.57743 | 22299 ft | 389 kts | 150° |
| 2026-05-07 15:20 | 52.30365 | -1.55427 | 21889 ft | 385 kts | 150° |
| 2026-05-07 15:20 | 52.28095 | -1.53132 | 21426 ft | 381 kts | 150° |
| 2026-05-07 15:20 | 52.25852 | -1.50870 | 20970 ft | 377 kts | 150° |
| 2026-05-07 15:20 | 52.23633 | -1.48630 | 20496 ft | 374 kts | 150° |
| 2026-05-07 15:21 | 52.22180 | -1.47147 | 20183 ft | 372 kts | 148° |
| 2026-05-07 15:21 | 52.20154 | -1.44537 | 19771 ft | 370 kts | 141° |
| 2026-05-07 15:21 | 52.18214 | -1.41809 | 19411 ft | 368 kts | 141° |
| 2026-05-07 15:21 | 52.16275 | -1.39092 | 19039 ft | 366 kts | 141° |
| 2026-05-07 15:22 | 52.14345 | -1.36395 | 18671 ft | 364 kts | 141° |
| 2026-05-07 15:22 | 52.12425 | -1.33718 | 18288 ft | 362 kts | 141° |
| 2026-05-07 15:22 | 52.10522 | -1.31072 | 17893 ft | 359 kts | 141° |
| 2026-05-07 15:22 | 52.08626 | -1.28441 | 17531 ft | 357 kts | 141° |
| 2026-05-07 15:23 | 52.06744 | -1.25832 | 17165 ft | 354 kts | 141° |
| 2026-05-07 15:23 | 52.04873 | -1.23240 | 16807 ft | 352 kts | 141° |
| 2026-05-07 15:23 | 52.03018 | -1.20673 | 16446 ft | 349 kts | 141° |
| 2026-05-07 15:23 | 52.01172 | -1.18120 | 16055 ft | 347 kts | 141° |
| 2026-05-07 15:24 | 51.99342 | -1.15592 | 15705 ft | 344 kts | 141° |
| 2026-05-07 15:24 | 51.97526 | -1.13083 | 15358 ft | 342 kts | 141° |
| 2026-05-07 15:24 | 51.95720 | -1.10589 | 15011 ft | 340 kts | 141° |
| 2026-05-07 15:24 | 51.93915 | -1.08099 | 14252 ft | 342 kts | 141° |
| 2026-05-07 15:25 | 51.92143 | -1.05659 | 13933 ft | 322 kts | 141° |
| 2026-05-07 15:25 | 51.90498 | -1.03397 | 13806 ft | 300 kts | 141° |
| 2026-05-07 15:25 | 51.88961 | -1.01282 | 13668 ft | 280 kts | 141° |
| 2026-05-07 15:25 | 51.87517 | -0.99293 | 13409 ft | 267 kts | 141° |
| 2026-05-07 15:26 | 51.86134 | -0.97384 | 12955 ft | 262 kts | 139° |
| 2026-05-07 15:26 | 51.84973 | -0.95127 | 12458 ft | 262 kts | 123° |
| 2026-05-07 15:26 | 51.84142 | -0.92499 | 11966 ft | 261 kts | 118° |
| 2026-05-07 15:26 | 51.83340 | -0.89853 | 11666 ft | 261 kts | 118° |
| 2026-05-07 15:27 | 51.82538 | -0.87218 | 11348 ft | 262 kts | 118° |
| 2026-05-07 15:27 | 51.81738 | -0.84596 | 11141 ft | 258 kts | 118° |
| 2026-05-07 15:27 | 51.80941 | -0.81990 | 10837 ft | 258 kts | 118° |
| 2026-05-07 15:27 | 51.80143 | -0.79394 | 10571 ft | 258 kts | 118° |
| 2026-05-07 15:28 | 51.79345 | -0.76806 | 10318 ft | 257 kts | 118° |
| 2026-05-07 15:28 | 51.78552 | -0.74230 | 10066 ft | 256 kts | 118° |
| 2026-05-07 15:28 | 51.77759 | -0.71660 | 9801 ft | 255 kts | 118° |
| 2026-05-07 15:28 | 51.76972 | -0.69104 | 9500 ft | 254 kts | 118° |
| 2026-05-07 15:29 | 51.76185 | -0.66556 | 9233 ft | 254 kts | 118° |
| 2026-05-07 15:29 | 51.75399 | -0.64010 | 8953 ft | 253 kts | 118° |
| 2026-05-07 15:29 | 51.74613 | -0.61465 | 8678 ft | 252 kts | 118° |
| 2026-05-07 15:29 | 51.73829 | -0.58932 | 8408 ft | 251 kts | 119° |
| 2026-05-07 15:30 | 51.72808 | -0.56686 | 8159 ft | 248 kts | 140° |
| 2026-05-07 15:30 | 51.71356 | -0.55256 | 7893 ft | 244 kts | 162° |
| 2026-05-07 15:30 | 51.69718 | -0.54796 | 7610 ft | 242 kts | 179° |
| 2026-05-07 15:30 | 51.68006 | -0.54704 | 7333 ft | 243 kts | 179° |
| 2026-05-07 15:31 | 51.66345 | -0.54616 | 7107 ft | 241 kts | 179° |
| 2026-05-07 15:31 | 51.64693 | -0.54527 | 7054 ft | 236 kts | 179° |
| 2026-05-07 15:31 | 51.63059 | -0.54743 | 7051 ft | 236 kts | 198° |
| 2026-05-07 15:31 | 51.61618 | -0.55967 | 7054 ft | 236 kts | 221° |
| 2026-05-07 15:32 | 51.60607 | -0.58027 | 7054 ft | 237 kts | 244° |
| 2026-05-07 15:32 | 51.60189 | -0.60581 | 7057 ft | 238 kts | 264° |
| 2026-05-07 15:32 | 51.60061 | -0.63246 | 7052 ft | 239 kts | 264° |
| 2026-05-07 15:32 | 51.59925 | -0.65915 | 6972 ft | 241 kts | 264° |
| 2026-05-07 15:33 | 51.59764 | -0.68621 | 6653 ft | 244 kts | 263° |
| 2026-05-07 15:33 | 51.59595 | -0.71328 | 6380 ft | 243 kts | 263° |
| 2026-05-07 15:33 | 51.59423 | -0.74039 | 6112 ft | 244 kts | 263° |
| 2026-05-07 15:33 | 51.59120 | -0.76708 | 5800 ft | 243 kts | 246° |
| 2026-05-07 15:34 | 51.58065 | -0.78803 | 5441 ft | 245 kts | 213° |
| 2026-05-07 15:34 | 51.56456 | -0.79640 | 5085 ft | 247 kts | 182° |
| 2026-05-07 15:34 | 51.54732 | -0.79577 | 4729 ft | 249 kts | 178° |
| 2026-05-07 15:34 | 51.53030 | -0.79476 | 4369 ft | 241 kts | 178° |
| 2026-05-07 15:35 | 51.51379 | -0.79378 | 4069 ft | 233 kts | 178° |
| 2026-05-07 15:35 | 51.49792 | -0.79285 | 3995 ft | 223 kts | 178° |
| 2026-05-07 15:35 | 51.48349 | -0.78722 | 3978 ft | 211 kts | 146° |
| 2026-05-07 15:35 | 51.47495 | -0.76860 | 3634 ft | 215 kts | 102° |
| 2026-05-07 15:36 | 51.47537 | -0.74464 | 3326 ft | 217 kts | 83° |
| 2026-05-07 15:36 | 51.47630 | -0.72040 | 3026 ft | 218 kts | 89° |
| 2026-05-07 15:36 | 51.47647 | -0.69610 | 2731 ft | 219 kts | 90° |
| 2026-05-07 15:36 | 51.47658 | -0.67217 | 2429 ft | 207 kts | 90° |
| 2026-05-07 15:37 | 51.47670 | -0.64953 | 2177 ft | 198 kts | 90° |
| 2026-05-07 15:37 | 51.47682 | -0.62818 | 1900 ft | 185 kts | 90° |
| 2026-05-07 15:37 | 51.47692 | -0.60854 | 1677 ft | 164 kts | 90° |
| 2026-05-07 15:37 | 51.47701 | -0.59127 | 1459 ft | 149 kts | 91° |
| 2026-05-07 15:38 | 51.47708 | -0.57499 | 1245 ft | 144 kts | 90° |
| 2026-05-07 15:38 | 51.47716 | -0.55906 | 1049 ft | 141 kts | 90° |
| 2026-05-07 15:38 | 51.47723 | -0.54345 | 849 ft | 139 kts | 90° |
| 2026-05-07 15:38 | 51.47730 | -0.52818 | 667 ft | 135 kts | 90° |
| 2026-05-07 15:39 | 51.47736 | -0.51331 | 486 ft | 133 kts | 89° |
| 2026-05-07 15:39 | 51.47747 | -0.49849 | 304 ft | 131 kts | 88° |
| 2026-05-07 15:39 | 51.47756 | -0.48401 | 133 ft | 130 kts | 90° |
| 2026-05-07 15:39 | 51.47757 | -0.47076 | 90 ft | 98 kts | 90° |
| 2026-05-07 15:40 | 51.47759 | -0.46262 | 88 ft | 50 kts | 90° |
| 2026-05-07 15:40 | 51.47761 | -0.45749 | 84 ft | 34 kts | 90° |
| 2026-05-07 15:40 | 51.47745 | -0.45510 | 88 ft | 19 kts | 125° |
| 2026-05-07 15:40 | 51.47640 | -0.45469 | 87 ft | 13 kts | 185° |
| 2026-05-07 15:41 | 51.47595 | -0.45578 | 89 ft | 14 kts | 269° |
| 2026-05-07 15:41 | 51.47594 | -0.45746 | 87 ft | 16 kts | 269° |
| 2026-05-07 15:41 | 51.47594 | -0.45943 | 90 ft | 19 kts | 270° |
| 2026-05-07 15:41 | 51.47593 | -0.46168 | 87 ft | 21 kts | 269° |
| 2026-05-07 15:42 | 51.47593 | -0.46419 | 87 ft | 24 kts | 271° |
| 2026-05-07 15:42 | 51.47591 | -0.46657 | 87 ft | 20 kts | 270° |
| 2026-05-07 15:42 | 51.47584 | -0.46897 | 87 ft | 23 kts | 264° |
| 2026-05-07 15:42 | 51.47581 | -0.47163 | 91 ft | 26 kts | 270° |
| 2026-05-07 15:43 | 51.47580 | -0.47463 | 87 ft | 28 kts | 270° |
| 2026-05-07 15:43 | 51.47579 | -0.47756 | 90 ft | 23 kts | 269° |
| 2026-05-07 15:43 | 51.47578 | -0.48023 | 89 ft | 23 kts | 270° |
| 2026-05-07 15:43 | 51.47577 | -0.48283 | 87 ft | 24 kts | 269° |
| 2026-05-07 15:44 | 51.47576 | -0.48527 | 87 ft | 18 kts | 270° |
| 2026-05-07 15:44 | 51.47576 | -0.48730 | 87 ft | 18 kts | 269° |
| 2026-05-07 15:44 | 51.47575 | -0.48892 | 87 ft | 10 kts | 268° |
| 2026-05-07 15:44 | 51.47533 | -0.48956 | 89 ft | 9 kts | 181° |
| 2026-05-07 15:45 | 51.47474 | -0.48956 | 91 ft | 7 kts | 179° |
| 2026-05-07 15:45 | 51.47446 | -0.48955 | 89 ft | 3 kts | 180° |
| 2026-05-07 15:45 | 51.47431 | -0.48956 | 87 ft | 1 kts | 180° |
| 2026-05-07 15:45 | 51.47422 | -0.48955 | 88 ft | 1 kts | 180° |
| 2026-05-07 15:46 | 51.47417 | -0.48956 | 89 ft | 0 kts | 180° |